Impacts TAF Board
For situational awareness. Not to be used for flight planning purposes.
IDs:

KLGA - New York/La Guardia, NY, US

Issued at 1138 UTC 30 Mar 2020
Updated at 1324 UTC 30 Mar 2020
Potential Impact None Slight Moderate High
Time1251Z 30/14Z 30/15Z 30/16Z 30/17Z 30/18Z 30/19Z 30/20Z 30/21Z 30/22Z 30/23Z 31/00Z 31/01Z 31/02Z>>
Type OBS PRVL PRVL PRVL PRVL PRVL PRVL PRVL PRVL PRVL PRVL PRVL PRVL PRVL
VIS 10 >6 >6 >6 >6 >6 >6 >6 >6 >6 >6 >6 >6 >6
CIG 9 20 20 20 60 60 60 60 35 35 35 35 35 35
Cover OVC OVC OVC OVC OVC OVC OVC OVC OVC OVC OVC OVC OVC OVC
FltCat IFR MVFR MVFR MVFR VFR VFR VFR VFR VFR VFR VFR VFR VFR VFR
WX -- -- -- -- VCSH VCSH VCSH VCSH SHRA SHRA SHRA SHRA VCSH VCSH
WDir 60 VRB VRB VRB 160 160 160 160 10 10 10 10 10 10
WSpd 9 4 4 4 5 5 5 5 6 6 6 6 5 5
WGst -- -- -- -- -- -- -- -- -- -- -- -- -- --
Raw TAF
KLGA 301138Z 3012/3118 05007KT P6SM BKN012 OVC060
  FM301400 VRB04KT P6SM SCT015 BKN020 OVC060
  FM301700 16005KT P6SM VCSH SCT025 OVC060
  FM302100 01006KT P6SM SHRA SCT015 OVC035
  FM310100 01005KT P6SM VCSH SCT015 OVC035
  FM310500 03008KT P6SM VCSH BKN015 OVC035
  FM310800 04010KT P6SM VCSH OVC015
  FM311600 06010KT P6SM OVC035


Raw METAR
KLGA 301251Z 06009KT 10SM OVC009 06/03 A2998 RMK AO2 SLP150 T00610033
KLGA 301151Z 04012KT 10SM OVC009 06/03 A2998 RMK AO2 SLP153 60000 70001 T00560033 10089 20056 53010
KLGA 301135Z 04010KT 10SM OVC009 06/03 A2999 RMK AO2 T00560033
KLGA 301051Z 05007KT 10SM OVC012 06/03 A2997 RMK AO2 SLP148 T00610033

METAR Board
Radar Display
Forecast Discussion
For situational awareness. Not to be used for flight planning purposes.